createdAt,value
2023-04-21T00:00:18.327Z,1.20
2023-04-21T00:05:22.495Z,1.10
2023-04-21T00:10:25.910Z,1.05
2023-04-21T00:15:29.650Z,1.13
2023-04-21T00:20:33.768Z,0.98
2023-04-21T00:25:38.225Z,1.10
2023-04-21T00:30:42.093Z,1.70
2023-04-21T00:35:45.302Z,0.80
2023-04-21T00:40:49.142Z,0.82
2023-04-21T00:45:52.607Z,0.88
2023-04-21T00:50:56.944Z,1.20
2023-04-21T00:56:00.142Z,0.77
2023-04-21T01:01:05.713Z,1.48
2023-04-21T01:06:10.221Z,0.70
2023-04-21T01:11:14.994Z,0.90
2023-04-21T01:16:19.063Z,1.00
2023-04-21T01:21:23.915Z,1.33
2023-04-21T01:26:27.496Z,0.82
2023-04-21T01:31:31.492Z,0.80
2023-04-21T01:36:37.719Z,1.00
2023-04-21T01:41:41.869Z,0.95
2023-04-21T01:46:45.892Z,1.00
2023-04-21T01:51:49.557Z,0.57
2023-04-21T01:56:53.918Z,1.23
2023-04-21T02:01:58.272Z,1.00
2023-04-21T02:07:02.530Z,1.00
2023-04-21T02:12:06.417Z,0.80
2023-04-21T02:17:10.685Z,1.08
2023-04-21T02:22:14.428Z,0.70
2023-04-21T02:27:17.802Z,1.20
2023-04-21T02:32:25.960Z,1.10
2023-04-21T02:37:30.058Z,0.73
2023-04-21T02:42:35.123Z,0.80
2023-04-21T02:47:38.403Z,0.85
2023-04-21T02:52:41.642Z,1.13
2023-04-21T02:57:45.371Z,1.02
2023-04-21T03:02:49.348Z,0.98
2023-04-21T03:07:53.593Z,0.93
2023-04-21T03:12:57.657Z,0.98
2023-04-21T03:18:01.955Z,0.75
2023-04-21T03:23:05.476Z,0.80
2023-04-21T03:28:10.521Z,1.00
2023-04-21T03:33:13.676Z,1.02
2023-04-21T03:38:17.763Z,1.00
2023-04-21T03:43:22.128Z,0.90
2023-04-21T03:48:26.135Z,0.80
2023-04-21T03:53:29.698Z,1.00
2023-04-21T03:58:33.269Z,1.40
2023-04-21T04:03:36.988Z,1.10
2023-04-21T04:08:41.234Z,1.20
2023-04-21T04:13:44.962Z,1.20
2023-04-21T04:18:51.458Z,1.00
2023-04-21T04:23:55.264Z,1.20
2023-04-21T04:29:05.468Z,0.90
2023-04-21T04:34:09.918Z,0.95
2023-04-21T04:39:14.763Z,1.00
2023-04-21T04:44:19.248Z,1.40
2023-04-21T04:49:24.182Z,1.00
2023-04-21T04:54:29.504Z,0.65
2023-04-21T04:59:33.245Z,0.70
2023-04-21T05:04:37.401Z,1.33
2023-04-21T05:09:40.672Z,1.05
2023-04-21T05:14:44.622Z,1.30
2023-04-21T05:19:48.108Z,1.20
2023-04-21T05:24:51.728Z,1.85
2023-04-21T05:29:57.093Z,1.30
2023-04-21T05:35:00.614Z,1.50
2023-04-21T05:40:04.051Z,2.17
2023-04-21T05:45:08.617Z,1.80
2023-04-21T05:50:12.869Z,2.33
2023-04-21T05:55:16.621Z,2.70
2023-04-21T06:00:20.237Z,1.90
2023-04-21T06:05:23.936Z,2.00
2023-04-21T06:10:27.667Z,1.85
2023-04-21T06:15:30.841Z,2.40
2023-04-21T06:20:34.081Z,1.35
2023-04-21T06:25:37.211Z,1.83
2023-04-21T06:30:41.159Z,1.08
2023-04-21T06:35:44.795Z,0.90
2023-04-21T06:40:48.369Z,0.60
2023-04-21T06:45:52.278Z,1.00
2023-04-21T06:50:56.369Z,1.20
2023-04-21T06:56:00.319Z,1.17
2023-04-21T07:01:04.053Z,0.95
2023-04-21T07:06:07.890Z,1.27
2023-04-21T07:11:12.157Z,1.38
2023-04-21T07:16:15.576Z,1.35
2023-04-21T07:21:19.070Z,0.85
2023-04-21T07:26:23.099Z,1.13
2023-04-21T07:31:26.789Z,0.90
2023-04-21T07:36:31.325Z,1.05
2023-04-21T07:41:36.190Z,1.53
2023-04-21T07:46:40.470Z,1.20
2023-04-21T07:51:44.361Z,1.40
2023-04-21T07:56:47.977Z,1.35
2023-04-21T08:01:52.044Z,1.63
2023-04-21T08:06:56.432Z,1.92
2023-04-21T08:12:00.161Z,1.60
2023-04-21T08:17:03.691Z,1.65
2023-04-21T08:22:07.458Z,1.83
2023-04-21T08:27:10.662Z,1.20
2023-04-21T08:32:14.354Z,1.98
2023-04-21T08:37:19.234Z,1.92
2023-04-21T08:42:22.803Z,1.80
2023-04-21T08:47:26.581Z,1.40
2023-04-21T08:52:29.793Z,1.30
2023-04-21T08:57:33.866Z,1.58
2023-04-21T09:03:01.281Z,1.95
2023-04-21T09:08:19.446Z,1.92
2023-04-21T09:13:31.221Z,1.65
2023-04-21T09:18:41.639Z,2.13
2023-04-21T09:23:47.275Z,1.60
2023-04-21T09:28:53.345Z,1.55
2023-04-21T09:34:01.023Z,1.60
2023-04-21T09:44:14.254Z,1.63
2023-04-21T09:49:18.763Z,1.50
2023-04-21T09:54:30.471Z,1.52
2023-04-21T09:59:39.130Z,1.45
2023-04-21T10:04:44.059Z,2.40
2023-04-21T10:09:54.832Z,1.87
2023-04-21T10:14:58.947Z,1.42
2023-04-21T10:20:02.324Z,1.52
2023-04-21T10:25:10.397Z,1.40
2023-04-21T10:30:21.177Z,1.50
2023-04-21T10:35:24.880Z,1.65
2023-04-21T10:40:42.964Z,1.90
2023-04-21T10:45:47.720Z,1.60
2023-04-21T10:50:51.347Z,1.50
2023-04-21T10:55:55.086Z,1.65
2023-04-21T11:00:59.462Z,1.40
2023-04-21T11:06:15.146Z,1.85
2023-04-21T11:11:24.508Z,1.83
2023-04-21T11:16:28.200Z,1.50
2023-04-21T11:21:33.380Z,1.95
2023-04-21T11:26:42.890Z,2.00
2023-04-21T11:31:49.223Z,1.90
2023-04-21T11:36:54.024Z,1.85
2023-04-21T11:41:58.058Z,1.60
2023-04-21T11:47:12.342Z,1.50
2023-04-21T11:52:34.586Z,1.27
2023-04-21T11:57:53.384Z,1.33
2023-04-21T12:03:08.862Z,0.80
2023-04-21T12:08:34.962Z,1.25
2023-04-21T12:13:41.098Z,1.05
2023-04-21T12:18:44.663Z,0.90
2023-04-21T12:23:48.809Z,1.00
2023-04-21T12:34:31.113Z,0.90
2023-04-21T12:39:34.864Z,1.17
2023-04-21T12:44:40.279Z,0.95
2023-04-21T12:49:44.492Z,0.82
2023-04-21T12:54:47.579Z,0.82
2023-04-21T12:59:51.420Z,1.10
2023-04-21T13:04:54.633Z,1.02
2023-04-21T13:09:58.700Z,1.05
2023-04-21T13:15:02.444Z,1.30
2023-04-21T13:20:07.535Z,1.05
2023-04-21T13:25:10.864Z,1.50
2023-04-21T13:30:16.134Z,0.82
2023-04-21T13:35:19.323Z,1.10
2023-04-21T13:40:23.002Z,0.93
2023-04-21T13:45:26.986Z,0.80
2023-04-21T13:50:30.686Z,0.70
2023-04-21T13:55:34.319Z,0.50
2023-04-21T14:00:39.061Z,0.90
2023-04-21T14:05:43.053Z,1.33
2023-04-21T14:10:47.402Z,1.40
2023-04-21T14:15:51.450Z,0.82
2023-04-21T14:20:55.109Z,1.25
2023-04-21T14:25:59.140Z,0.90
2023-04-21T14:31:04.474Z,1.20
2023-04-21T14:36:08.527Z,1.02
2023-04-21T14:41:12.798Z,1.70
2023-04-21T14:46:16.176Z,1.70
2023-04-21T14:51:20.488Z,1.55
2023-04-21T14:56:24.508Z,1.40
2023-04-21T15:01:28.053Z,1.73
2023-04-21T15:06:31.904Z,1.67
2023-04-21T15:11:35.662Z,1.50
2023-04-21T15:16:39.351Z,1.80
2023-04-21T15:21:43.441Z,1.48
2023-04-21T15:26:47.411Z,1.72
2023-04-21T15:31:51.108Z,1.95
2023-04-21T15:36:54.908Z,1.65
2023-04-21T15:41:59.441Z,2.05
2023-04-21T15:47:02.736Z,2.00
2023-04-21T15:52:07.302Z,1.52
2023-04-21T15:57:11.528Z,1.90
2023-04-21T16:02:16.018Z,2.28
2023-04-21T16:07:20.313Z,1.88
2023-04-21T16:12:23.981Z,2.17
2023-04-21T16:17:28.216Z,2.33
2023-04-21T16:22:32.650Z,2.33
2023-04-21T16:27:35.765Z,2.72
2023-04-21T16:32:39.654Z,3.35
2023-04-21T16:37:44.596Z,2.72
2023-04-21T16:42:49.198Z,3.38
2023-04-21T16:47:53.396Z,3.53
2023-04-21T16:52:57.396Z,3.40
2023-04-21T16:58:01.456Z,3.22
2023-04-21T17:03:05.294Z,2.80
2023-04-21T17:08:09.528Z,3.00
2023-04-21T17:13:13.021Z,3.00
2023-04-21T17:18:17.169Z,3.20
2023-04-21T17:23:20.604Z,3.55
2023-04-21T17:28:32.473Z,3.53
2023-04-21T17:33:36.537Z,3.80
2023-04-21T17:38:42.062Z,3.80
2023-04-21T17:43:46.025Z,4.15
2023-04-21T17:48:50.101Z,5.35
2023-04-21T17:53:54.660Z,5.72
2023-04-21T17:58:57.936Z,5.30
2023-04-21T18:04:02.068Z,5.38
2023-04-21T18:09:05.965Z,4.72
2023-04-21T18:14:09.659Z,4.43
2023-04-21T18:19:13.608Z,2.88
2023-04-21T18:24:17.226Z,1.80
2023-04-21T18:29:20.510Z,1.38
2023-04-21T18:34:24.289Z,1.92
2023-04-21T18:39:27.801Z,1.50
2023-04-21T18:44:32.160Z,1.35
2023-04-21T18:49:35.831Z,1.40
2023-04-21T18:54:40.171Z,1.40
2023-04-21T18:59:43.808Z,1.27
2023-04-21T19:04:48.039Z,1.15
2023-04-21T19:09:52.390Z,0.80
2023-04-21T19:14:56.669Z,0.88
2023-04-21T19:20:00.961Z,1.38
2023-04-21T19:25:06.413Z,0.75
2023-04-21T19:30:10.109Z,0.73
2023-04-21T19:35:13.756Z,0.70
2023-04-21T19:40:17.862Z,1.20
2023-04-21T19:45:21.387Z,0.85
2023-04-21T19:50:25.473Z,0.88
2023-04-21T19:55:29.196Z,1.00
2023-04-21T20:00:32.890Z,0.80
2023-04-21T20:05:36.496Z,0.85
2023-04-21T20:10:45.491Z,1.00
2023-04-21T20:15:49.638Z,0.75
2023-04-21T20:20:53.177Z,0.65
2023-04-21T20:25:58.273Z,0.80
2023-04-21T20:31:02.009Z,0.68
2023-04-21T20:36:07.624Z,0.95
2023-04-21T20:41:11.192Z,0.63
2023-04-21T20:46:16.002Z,0.77
2023-04-21T20:51:19.683Z,0.80
2023-04-21T20:56:22.962Z,0.90
2023-04-21T21:01:28.675Z,1.08
2023-04-21T21:06:33.977Z,0.80
2023-04-21T21:11:37.582Z,0.90
2023-04-21T21:16:40.971Z,0.80
2023-04-21T21:21:44.975Z,1.00
2023-04-21T21:26:48.455Z,1.10
2023-04-21T21:31:52.054Z,1.02
2023-04-21T21:36:55.895Z,1.05
2023-04-21T21:41:59.515Z,0.80
2023-04-21T21:47:03.704Z,1.25
2023-04-21T21:52:06.967Z,1.00
2023-04-21T21:57:10.240Z,1.13
2023-04-21T22:02:13.867Z,1.05
2023-04-21T22:07:17.916Z,1.15
2023-04-21T22:12:21.925Z,1.02
2023-04-21T22:17:26.106Z,1.20
2023-04-21T22:22:29.393Z,1.00
2023-04-21T22:27:34.074Z,1.30
2023-04-21T22:32:37.953Z,1.50
2023-04-21T22:37:42.663Z,1.83
2023-04-21T22:42:46.828Z,1.88
2023-04-21T22:47:51.416Z,1.50
2023-04-21T22:52:55.415Z,1.73
2023-04-21T22:57:59.116Z,2.00
2023-04-21T23:03:03.255Z,2.30
2023-04-21T23:08:07.392Z,1.75
2023-04-21T23:13:11.155Z,2.17
2023-04-21T23:18:14.737Z,2.10
2023-04-21T23:23:18.842Z,2.05
2023-04-21T23:28:22.269Z,1.98
2023-04-21T23:33:25.892Z,1.95
2023-04-21T23:38:29.284Z,2.33
2023-04-21T23:43:34.857Z,1.92
2023-04-21T23:48:38.400Z,2.45
2023-04-21T23:53:42.574Z,2.60
2023-04-21T23:58:46.124Z,2.38
